Brookings, OR

6:14 AM PDT on August 29, 2016 (GMT -0700)
Gardner Ridge | | Change Station

Elev 1365 ft 42.11 °N, 124.21 °W | Updated 2 minutes ago

Light Rain
Light Rain Mist
48.5 °F
Feels Like 48 °F
N
0.0
Wind Variable Wind from SE
Gusts 0.0 mph

Today
High -- | Low -- °F
--% Chance of Precip.
Yesterday
High -- | Low -- °F
Precip. -- in
Pressure 30.11 in
Visibility 2.5 miles
Clouds Overcast 300 ft
Windchill 48 °F
Dew Point 48 °F
Humidity 98%
Rainfall 0.00 in
Snow Depth Not available.
6:40 AM 7:54 PM
Waning Crescent, 9% visible
SPECI KBOK 291311Z AUTO 00000KT 2 1/2SM -RA BR OVC003 11/11 A3011 RMK AO2 P0000
Pressure 30.11 in
Visibility 2.5 miles
Clouds Overcast 300 ft
Windchill 48 °F
Dew Point 48 °F
Humidity 98%
Rainfall 0.00 in
Snow Depth Not available.
6:40 AM 7:54 PM
Waning Crescent, 9% visible
SPECI KBOK 291311Z AUTO 00000KT 2 1/2SM -RA BR OVC003 11/11 A3011 RMK AO2 P0000

10-Day Weather Forecast

Almanac

Astronomy

Aug. 29, 2016 Rise Set
Actual Time
Civil Twilight
Nautical Twilight
Astronomical Twilight
Moon
Length of Visible Light
Length of Day
Tomorrow will be .
, % of the Moon is Illuminated

Today's Extremes

State Highs State Lows

Community

WunderPhotos

Upload Photos

1,935,817 photos uploaded!

WunderBlog® & News

Nearby

Air Quality

  Air Quality AQ Index Pollutant
Not available.

Snow Depth

Station Depth Elevation

Earthquake Activity

City Distance Mag. Time & Date
Minimum magnitude displayed is 2.5.

Coastal Water Temperatures

Place Temperature

Stations

Nearby Weather Stations

Station Location Temp. Windchill Dew Point Humidity Wind Precip. Elev Updated Type
                   

Watches & Warnings

There are currently no watches in effect.